sensor_id;sensor_type;location;lat;lon;timestamp;P1;durP1;ratioP1;P2;durP2;ratioP2
14778;SDS011;7481;53.750;10.570;2022-09-14T00:01:52;4.57;;;1.90;;
14778;SDS011;7481;53.750;10.570;2022-09-14T00:04:39;4.60;;;2.17;;
14778;SDS011;7481;53.750;10.570;2022-09-14T00:07:27;3.93;;;1.90;;
14778;SDS011;7481;53.750;10.570;2022-09-14T00:10:14;5.50;;;1.70;;
14778;SDS011;7481;53.750;10.570;2022-09-14T00:13:01;6.37;;;2.00;;
14778;SDS011;7481;53.750;10.570;2022-09-14T00:15:48;4.00;;;1.73;;
14778;SDS011;7481;53.750;10.570;2022-09-14T00:18:37;4.90;;;1.50;;
14778;SDS011;7481;53.750;10.570;2022-09-14T00:21:24;6.60;;;2.10;;
14778;SDS011;7481;53.750;10.570;2022-09-14T00:24:11;7.47;;;1.97;;
14778;SDS011;7481;53.750;10.570;2022-09-14T00:26:58;8.47;;;2.37;;
14778;SDS011;7481;53.750;10.570;2022-09-14T00:29:46;4.77;;;1.70;;
14778;SDS011;7481;53.750;10.570;2022-09-14T00:32:34;6.87;;;2.00;;
14778;SDS011;7481;53.750;10.570;2022-09-14T00:35:20;7.00;;;1.83;;
14778;SDS011;7481;53.750;10.570;2022-09-14T00:38:07;7.43;;;1.97;;
14778;SDS011;7481;53.750;10.570;2022-09-14T00:40:56;7.33;;;1.90;;
14778;SDS011;7481;53.750;10.570;2022-09-14T00:46:50;6.67;;;2.00;;
14778;SDS011;7481;53.750;10.570;2022-09-14T00:49:40;5.83;;;2.07;;
14778;SDS011;7481;53.750;10.570;2022-09-14T00:52:29;5.33;;;1.93;;
14778;SDS011;7481;53.750;10.570;2022-09-14T00:55:20;5.23;;;1.80;;
14778;SDS011;7481;53.750;10.570;2022-09-14T00:58:08;7.77;;;2.30;;
14778;SDS011;7481;53.750;10.570;2022-09-14T01:00:55;4.57;;;2.20;;
14778;SDS011;7481;53.750;10.570;2022-09-14T01:03:44;4.93;;;1.90;;
14778;SDS011;7481;53.750;10.570;2022-09-14T01:09:32;7.17;;;1.83;;
14778;SDS011;7481;53.750;10.570;2022-09-14T01:12:39;7.03;;;2.20;;
14778;SDS011;7481;53.750;10.570;2022-09-14T01:15:54;6.60;;;1.80;;
14778;SDS011;7481;53.750;10.570;2022-09-14T01:18:49;7.43;;;2.10;;
14778;SDS011;7481;53.750;10.570;2022-09-14T01:21:41;7.07;;;1.90;;
14778;SDS011;7481;53.750;10.570;2022-09-14T01:24:47;7.03;;;1.87;;
14778;SDS011;7481;53.750;10.570;2022-09-14T01:27:38;3.30;;;1.80;;
14778;SDS011;7481;53.750;10.570;2022-09-14T01:30:30;6.73;;;2.10;;
14778;SDS011;7481;53.750;10.570;2022-09-14T01:33:24;6.23;;;1.70;;
14778;SDS011;7481;53.750;10.570;2022-09-14T01:36:16;7.10;;;1.73;;
14778;SDS011;7481;53.750;10.570;2022-09-14T01:39:04;4.73;;;2.07;;
14778;SDS011;7481;53.750;10.570;2022-09-14T01:41:52;4.30;;;1.70;;
14778;SDS011;7481;53.750;10.570;2022-09-14T01:44:41;5.10;;;1.70;;
14778;SDS011;7481;53.750;10.570;2022-09-14T01:47:34;8.37;;;2.13;;
14778;SDS011;7481;53.750;10.570;2022-09-14T01:50:39;8.90;;;2.60;;
14778;SDS011;7481;53.750;10.570;2022-09-14T01:53:34;4.43;;;1.97;;
14778;SDS011;7481;53.750;10.570;2022-09-14T01:56:46;8.37;;;1.80;;
14778;SDS011;7481;53.750;10.570;2022-09-14T01:59:38;6.17;;;2.13;;
14778;SDS011;7481;53.750;10.570;2022-09-14T02:02:37;5.23;;;2.03;;
14778;SDS011;7481;53.750;10.570;2022-09-14T02:05:41;8.87;;;2.33;;
14778;SDS011;7481;53.750;10.570;2022-09-14T02:08:42;5.27;;;2.10;;
14778;SDS011;7481;53.750;10.570;2022-09-14T02:11:29;7.20;;;1.87;;
14778;SDS011;7481;53.750;10.570;2022-09-14T02:14:16;9.17;;;2.40;;
14778;SDS011;7481;53.750;10.570;2022-09-14T02:17:03;7.43;;;2.63;;
14778;SDS011;7481;53.750;10.570;2022-09-14T02:19:54;6.97;;;2.33;;
14778;SDS011;7481;53.750;10.570;2022-09-14T02:22:43;5.57;;;2.40;;
14778;SDS011;7481;53.750;10.570;2022-09-14T02:25:30;5.37;;;2.03;;
14778;SDS011;7481;53.750;10.570;2022-09-14T02:28:18;7.80;;;2.50;;
14778;SDS011;7481;53.750;10.570;2022-09-14T02:46:14;5.93;;;1.80;;
14778;SDS011;7481;53.750;10.570;2022-09-14T02:49:10;6.40;;;2.20;;
14778;SDS011;7481;53.750;10.570;2022-09-14T02:52:17;5.60;;;2.00;;
14778;SDS011;7481;53.750;10.570;2022-09-14T02:55:12;10.33;;;2.70;;
14778;SDS011;7481;53.750;10.570;2022-09-14T02:58:07;5.63;;;1.80;;
14778;SDS011;7481;53.750;10.570;2022-09-14T03:00:56;7.33;;;1.77;;
14778;SDS011;7481;53.750;10.570;2022-09-14T03:03:43;5.33;;;1.80;;
14778;SDS011;7481;53.750;10.570;2022-09-14T03:06:30;4.43;;;1.80;;
14778;SDS011;7481;53.750;10.570;2022-09-14T03:09:17;9.87;;;2.10;;
14778;SDS011;7481;53.750;10.570;2022-09-14T03:12:04;5.70;;;2.10;;
14778;SDS011;7481;53.750;10.570;2022-09-14T03:14:51;6.87;;;1.87;;
14778;SDS011;7481;53.750;10.570;2022-09-14T03:17:37;5.60;;;2.13;;
14778;SDS011;7481;53.750;10.570;2022-09-14T03:20:25;4.27;;;1.97;;
14778;SDS011;7481;53.750;10.570;2022-09-14T03:23:16;10.23;;;3.20;;
14778;SDS011;7481;53.750;10.570;2022-09-14T03:26:22;8.47;;;2.20;;
14778;SDS011;7481;53.750;10.570;2022-09-14T03:29:10;9.97;;;2.20;;
14778;SDS011;7481;53.750;10.570;2022-09-14T03:31:57;6.40;;;2.40;;
14778;SDS011;7481;53.750;10.570;2022-09-14T03:34:44;4.93;;;2.07;;
14778;SDS011;7481;53.750;10.570;2022-09-14T03:37:30;5.37;;;2.40;;
14778;SDS011;7481;53.750;10.570;2022-09-14T03:40:17;5.20;;;1.83;;
14778;SDS011;7481;53.750;10.570;2022-09-14T03:43:07;9.37;;;2.27;;
14778;SDS011;7481;53.750;10.570;2022-09-14T03:45:54;5.33;;;1.87;;
14778;SDS011;7481;53.750;10.570;2022-09-14T03:48:41;5.43;;;2.00;;
14778;SDS011;7481;53.750;10.570;2022-09-14T03:51:29;7.30;;;2.27;;
14778;SDS011;7481;53.750;10.570;2022-09-14T03:54:16;8.57;;;2.10;;
14778;SDS011;7481;53.750;10.570;2022-09-14T03:57:03;7.07;;;2.10;;
14778;SDS011;7481;53.750;10.570;2022-09-14T03:59:52;6.67;;;2.10;;
14778;SDS011;7481;53.750;10.570;2022-09-14T04:02:39;6.40;;;2.20;;
14778;SDS011;7481;53.750;10.570;2022-09-14T04:05:26;8.50;;;2.23;;
14778;SDS011;7481;53.750;10.570;2022-09-14T04:08:13;4.63;;;2.57;;
14778;SDS011;7481;53.750;10.570;2022-09-14T04:11:05;5.20;;;2.20;;
14778;SDS011;7481;53.750;10.570;2022-09-14T04:13:59;5.43;;;1.80;;
14778;SDS011;7481;53.750;10.570;2022-09-14T04:16:47;7.33;;;2.50;;
14778;SDS011;7481;53.750;10.570;2022-09-14T04:19:34;7.80;;;2.70;;
14778;SDS011;7481;53.750;10.570;2022-09-14T04:22:22;4.40;;;2.13;;
14778;SDS011;7481;53.750;10.570;2022-09-14T04:25:10;7.00;;;2.53;;
14778;SDS011;7481;53.750;10.570;2022-09-14T04:27:57;10.40;;;2.80;;
14778;SDS011;7481;53.750;10.570;2022-09-14T04:31:04;4.20;;;2.10;;
14778;SDS011;7481;53.750;10.570;2022-09-14T04:33:52;6.47;;;2.40;;
14778;SDS011;7481;53.750;10.570;2022-09-14T04:36:42;9.37;;;3.23;;
14778;SDS011;7481;53.750;10.570;2022-09-14T04:39:29;8.00;;;2.77;;
14778;SDS011;7481;53.750;10.570;2022-09-14T04:42:16;13.80;;;3.23;;
14778;SDS011;7481;53.750;10.570;2022-09-14T04:45:03;9.60;;;3.27;;
14778;SDS011;7481;53.750;10.570;2022-09-14T04:47:50;9.40;;;2.43;;
14778;SDS011;7481;53.750;10.570;2022-09-14T04:50:37;7.93;;;2.63;;
14778;SDS011;7481;53.750;10.570;2022-09-14T04:53:24;6.60;;;2.33;;
14778;SDS011;7481;53.750;10.570;2022-09-14T04:56:11;3.53;;;2.10;;
14778;SDS011;7481;53.750;10.570;2022-09-14T04:59:00;7.85;;;2.80;;
14778;SDS011;7481;53.750;10.570;2022-09-14T05:01:50;6.73;;;2.27;;
14778;SDS011;7481;53.750;10.570;2022-09-14T05:04:37;4.37;;;2.40;;
14778;SDS011;7481;53.750;10.570;2022-09-14T05:07:24;3.27;;;2.20;;
14778;SDS011;7481;53.750;10.570;2022-09-14T05:10:12;8.40;;;2.30;;
14778;SDS011;7481;53.750;10.570;2022-09-14T05:12:59;5.73;;;2.40;;
14778;SDS011;7481;53.750;10.570;2022-09-14T05:15:46;6.77;;;2.17;;
14778;SDS011;7481;53.750;10.570;2022-09-14T05:18:33;4.57;;;2.00;;
14778;SDS011;7481;53.750;10.570;2022-09-14T05:21:20;6.67;;;3.57;;
14778;SDS011;7481;53.750;10.570;2022-09-14T05:24:12;8.20;;;3.30;;
14778;SDS011;7481;53.750;10.570;2022-09-14T05:27:00;8.87;;;3.70;;
14778;SDS011;7481;53.750;10.570;2022-09-14T05:29:47;8.53;;;3.00;;
14778;SDS011;7481;53.750;10.570;2022-09-14T05:32:34;4.30;;;2.53;;
14778;SDS011;7481;53.750;10.570;2022-09-14T05:35:21;9.47;;;3.03;;
14778;SDS011;7481;53.750;10.570;2022-09-14T05:38:08;8.27;;;3.17;;
14778;SDS011;7481;53.750;10.570;2022-09-14T05:40:55;7.40;;;2.37;;
14778;SDS011;7481;53.750;10.570;2022-09-14T05:43:42;7.73;;;2.23;;
14778;SDS011;7481;53.750;10.570;2022-09-14T05:46:30;9.30;;;2.40;;
14778;SDS011;7481;53.750;10.570;2022-09-14T05:49:17;12.33;;;2.77;;
14778;SDS011;7481;53.750;10.570;2022-09-14T05:52:03;4.97;;;2.10;;
14778;SDS011;7481;53.750;10.570;2022-09-14T05:54:51;3.00;;;1.80;;
14778;SDS011;7481;53.750;10.570;2022-09-14T05:57:38;6.37;;;2.00;;
14778;SDS011;7481;53.750;10.570;2022-09-14T06:00:25;4.60;;;2.13;;
14778;SDS011;7481;53.750;10.570;2022-09-14T06:03:13;6.70;;;2.30;;
14778;SDS011;7481;53.750;10.570;2022-09-14T06:05:59;5.40;;;2.30;;
14778;SDS011;7481;53.750;10.570;2022-09-14T06:08:48;4.37;;;2.27;;
14778;SDS011;7481;53.750;10.570;2022-09-14T06:11:37;4.77;;;2.30;;
14778;SDS011;7481;53.750;10.570;2022-09-14T06:14:24;6.27;;;2.27;;
14778;SDS011;7481;53.750;10.570;2022-09-14T06:17:11;6.67;;;2.30;;
14778;SDS011;7481;53.750;10.570;2022-09-14T06:19:58;4.20;;;2.40;;
14778;SDS011;7481;53.750;10.570;2022-09-14T06:22:49;4.87;;;2.53;;
14778;SDS011;7481;53.750;10.570;2022-09-14T06:25:36;7.20;;;2.60;;
14778;SDS011;7481;53.750;10.570;2022-09-14T06:28:24;10.03;;;3.00;;
14778;SDS011;7481;53.750;10.570;2022-09-14T06:31:12;7.90;;;2.90;;
14778;SDS011;7481;53.750;10.570;2022-09-14T06:34:00;5.00;;;2.50;;
14778;SDS011;7481;53.750;10.570;2022-09-14T06:36:48;10.27;;;3.33;;
14778;SDS011;7481;53.750;10.570;2022-09-14T06:39:35;5.40;;;2.77;;
14778;SDS011;7481;53.750;10.570;2022-09-14T06:42:22;10.53;;;2.60;;
14778;SDS011;7481;53.750;10.570;2022-09-14T06:45:09;5.40;;;2.73;;
14778;SDS011;7481;53.750;10.570;2022-09-14T06:47:56;6.30;;;3.00;;
14778;SDS011;7481;53.750;10.570;2022-09-14T06:50:44;8.33;;;2.80;;
14778;SDS011;7481;53.750;10.570;2022-09-14T06:53:31;8.97;;;3.40;;
14778;SDS011;7481;53.750;10.570;2022-09-14T06:56:18;6.23;;;2.47;;
14778;SDS011;7481;53.750;10.570;2022-09-14T06:59:06;5.00;;;2.60;;
14778;SDS011;7481;53.750;10.570;2022-09-14T07:01:55;3.77;;;2.17;;
14778;SDS011;7481;53.750;10.570;2022-09-14T07:04:42;6.00;;;2.40;;
14778;SDS011;7481;53.750;10.570;2022-09-14T07:07:29;5.93;;;2.90;;
14778;SDS011;7481;53.750;10.570;2022-09-14T07:10:16;7.70;;;2.70;;
14778;SDS011;7481;53.750;10.570;2022-09-14T07:13:03;6.97;;;2.43;;
14778;SDS011;7481;53.750;10.570;2022-09-14T07:15:50;3.93;;;2.33;;
14778;SDS011;7481;53.750;10.570;2022-09-14T07:18:37;7.37;;;2.73;;
14778;SDS011;7481;53.750;10.570;2022-09-14T07:21:24;7.17;;;2.40;;
14778;SDS011;7481;53.750;10.570;2022-09-14T07:24:12;3.90;;;2.07;;
14778;SDS011;7481;53.750;10.570;2022-09-14T07:27:01;5.30;;;2.07;;
14778;SDS011;7481;53.750;10.570;2022-09-14T07:29:48;5.67;;;2.37;;
14778;SDS011;7481;53.750;10.570;2022-09-14T07:32:35;4.90;;;2.53;;
14778;SDS011;7481;53.750;10.570;2022-09-14T07:35:21;6.67;;;2.80;;
14778;SDS011;7481;53.750;10.570;2022-09-14T07:38:09;4.50;;;2.10;;
14778;SDS011;7481;53.750;10.570;2022-09-14T07:40:56;5.97;;;2.30;;
14778;SDS011;7481;53.750;10.570;2022-09-14T07:43:47;7.50;;;2.23;;
14778;SDS011;7481;53.750;10.570;2022-09-14T07:46:36;6.60;;;2.23;;
14778;SDS011;7481;53.750;10.570;2022-09-14T07:49:27;4.60;;;2.13;;
14778;SDS011;7481;53.750;10.570;2022-09-14T07:52:15;6.50;;;2.45;;
14778;SDS011;7481;53.750;10.570;2022-09-14T07:55:02;6.73;;;2.30;;
14778;SDS011;7481;53.750;10.570;2022-09-14T07:57:49;7.40;;;2.47;;
14778;SDS011;7481;53.750;10.570;2022-09-14T08:00:42;4.03;;;1.93;;
14778;SDS011;7481;53.750;10.570;2022-09-14T08:03:30;6.78;;;2.05;;
14778;SDS011;7481;53.750;10.570;2022-09-14T08:06:18;7.67;;;2.00;;
14778;SDS011;7481;53.750;10.570;2022-09-14T08:09:06;3.60;;;1.75;;
14778;SDS011;7481;53.750;10.570;2022-09-14T08:11:54;7.80;;;2.50;;
14778;SDS011;7481;53.750;10.570;2022-09-14T08:14:41;9.25;;;1.67;;
14778;SDS011;7481;53.750;10.570;2022-09-14T08:17:28;6.63;;;1.93;;
14778;SDS011;7481;53.750;10.570;2022-09-14T08:20:15;6.87;;;2.00;;
14778;SDS011;7481;53.750;10.570;2022-09-14T08:23:03;3.97;;;2.10;;
14778;SDS011;7481;53.750;10.570;2022-09-14T08:25:50;5.87;;;2.20;;
14778;SDS011;7481;53.750;10.570;2022-09-14T08:28:38;5.72;;;2.03;;
14778;SDS011;7481;53.750;10.570;2022-09-14T08:31:26;5.75;;;1.55;;
14778;SDS011;7481;53.750;10.570;2022-09-14T08:34:14;6.45;;;2.30;;
14778;SDS011;7481;53.750;10.570;2022-09-14T08:37:01;6.80;;;2.17;;
14778;SDS011;7481;53.750;10.570;2022-09-14T08:39:48;4.40;;;1.60;;
14778;SDS011;7481;53.750;10.570;2022-09-14T08:42:37;5.20;;;1.50;;
14778;SDS011;7481;53.750;10.570;2022-09-14T08:45:26;9.65;;;2.35;;
14778;SDS011;7481;53.750;10.570;2022-09-14T08:48:17;5.22;;;1.95;;
14778;SDS011;7481;53.750;10.570;2022-09-14T08:51:11;8.27;;;2.50;;
14778;SDS011;7481;53.750;10.570;2022-09-14T08:53:58;4.28;;;2.17;;
14778;SDS011;7481;53.750;10.570;2022-09-14T08:56:46;6.18;;;1.92;;
14778;SDS011;7481;53.750;10.570;2022-09-14T09:02:35;6.32;;;1.92;;
14778;SDS011;7481;53.750;10.570;2022-09-14T09:05:46;7.72;;;2.13;;
14778;SDS011;7481;53.750;10.570;2022-09-14T09:11:45;6.13;;;1.55;;
14778;SDS011;7481;53.750;10.570;2022-09-14T09:14:37;4.43;;;1.65;;
14778;SDS011;7481;53.750;10.570;2022-09-14T09:17:30;5.97;;;1.75;;
14778;SDS011;7481;53.750;10.570;2022-09-14T09:20:34;5.43;;;1.80;;
14778;SDS011;7481;53.750;10.570;2022-09-14T09:23:31;4.28;;;1.92;;
14778;SDS011;7481;53.750;10.570;2022-09-14T09:29:16;6.68;;;2.33;;
14778;SDS011;7481;53.750;10.570;2022-09-14T09:32:03;7.22;;;2.22;;
14778;SDS011;7481;53.750;10.570;2022-09-14T09:34:53;3.58;;;1.60;;
14778;SDS011;7481;53.750;10.570;2022-09-14T09:37:40;5.80;;;2.22;;
14778;SDS011;7481;53.750;10.570;2022-09-14T09:40:30;6.18;;;1.90;;
14778;SDS011;7481;53.750;10.570;2022-09-14T09:43:20;4.80;;;1.90;;
14778;SDS011;7481;53.750;10.570;2022-09-14T09:46:30;5.60;;;1.80;;
14778;SDS011;7481;53.750;10.570;2022-09-14T09:52:15;7.57;;;2.20;;
14778;SDS011;7481;53.750;10.570;2022-09-14T09:55:03;4.13;;;1.90;;
14778;SDS011;7481;53.750;10.570;2022-09-14T09:57:52;5.35;;;1.92;;
14778;SDS011;7481;53.750;10.570;2022-09-14T10:00:40;3.63;;;1.80;;
14778;SDS011;7481;53.750;10.570;2022-09-14T10:03:31;4.80;;;1.70;;
14778;SDS011;7481;53.750;10.570;2022-09-14T10:06:18;6.78;;;1.90;;
14778;SDS011;7481;53.750;10.570;2022-09-14T10:09:10;4.78;;;1.75;;
14778;SDS011;7481;53.750;10.570;2022-09-14T10:12:03;3.45;;;1.70;;
14778;SDS011;7481;53.750;10.570;2022-09-14T10:15:01;4.30;;;1.85;;
14778;SDS011;7481;53.750;10.570;2022-09-14T10:17:53;6.43;;;1.85;;
14778;SDS011;7481;53.750;10.570;2022-09-14T10:23:38;2.45;;;1.50;;
14778;SDS011;7481;53.750;10.570;2022-09-14T10:26:25;5.72;;;1.70;;
14778;SDS011;7481;53.750;10.570;2022-09-14T10:32:21;4.70;;;1.80;;
14778;SDS011;7481;53.750;10.570;2022-09-14T10:35:12;6.22;;;1.90;;
14778;SDS011;7481;53.750;10.570;2022-09-14T10:38:07;8.25;;;1.88;;
14778;SDS011;7481;53.750;10.570;2022-09-14T10:53:52;7.88;;;2.20;;
14778;SDS011;7481;53.750;10.570;2022-09-14T10:57:21;5.95;;;2.00;;
14778;SDS011;7481;53.750;10.570;2022-09-14T11:00:19;6.45;;;2.10;;
14778;SDS011;7481;53.750;10.570;2022-09-14T11:03:11;7.35;;;1.92;;
14778;SDS011;7481;53.750;10.570;2022-09-14T11:09:35;6.25;;;1.90;;
14778;SDS011;7481;53.750;10.570;2022-09-14T11:25:02;2.97;;;1.70;;
14778;SDS011;7481;53.750;10.570;2022-09-14T11:27:51;7.75;;;2.08;;
14778;SDS011;7481;53.750;10.570;2022-09-14T11:33:44;3.40;;;1.73;;
14778;SDS011;7481;53.750;10.570;2022-09-14T11:36:42;8.05;;;1.65;;
14778;SDS011;7481;53.750;10.570;2022-09-14T11:39:36;3.30;;;1.58;;
14778;SDS011;7481;53.750;10.570;2022-09-14T11:45:40;4.50;;;1.65;;
14778;SDS011;7481;53.750;10.570;2022-09-14T11:48:29;6.35;;;1.88;;
14778;SDS011;7481;53.750;10.570;2022-09-14T11:52:05;5.65;;;1.77;;
14778;SDS011;7481;53.750;10.570;2022-09-14T11:55:09;3.40;;;1.60;;
14778;SDS011;7481;53.750;10.570;2022-09-14T11:58:04;7.70;;;2.30;;
14778;SDS011;7481;53.750;10.570;2022-09-14T12:03:53;9.48;;;1.77;;
14778;SDS011;7481;53.750;10.570;2022-09-14T12:06:52;5.13;;;1.58;;
14778;SDS011;7481;53.750;10.570;2022-09-14T12:09:40;5.22;;;1.98;;
14778;SDS011;7481;53.750;10.570;2022-09-14T12:12:29;5.65;;;1.92;;
14778;SDS011;7481;53.750;10.570;2022-09-14T12:21:03;5.07;;;2.10;;
14778;SDS011;7481;53.750;10.570;2022-09-14T12:23:53;7.28;;;2.03;;
14778;SDS011;7481;53.750;10.570;2022-09-14T12:26:43;5.47;;;1.90;;
14778;SDS011;7481;53.750;10.570;2022-09-14T12:29:32;7.30;;;1.77;;
14778;SDS011;7481;53.750;10.570;2022-09-14T12:32:41;8.95;;;2.03;;
14778;SDS011;7481;53.750;10.570;2022-09-14T12:35:42;7.50;;;2.00;;
14778;SDS011;7481;53.750;10.570;2022-09-14T12:44:31;3.50;;;1.80;;
14778;SDS011;7481;53.750;10.570;2022-09-14T12:50:17;7.55;;;2.38;;
14778;SDS011;7481;53.750;10.570;2022-09-14T12:53:20;8.40;;;2.35;;
14778;SDS011;7481;53.750;10.570;2022-09-14T12:56:17;8.15;;;1.98;;
14778;SDS011;7481;53.750;10.570;2022-09-14T13:05:26;7.40;;;2.47;;
14778;SDS011;7481;53.750;10.570;2022-09-14T13:08:16;6.03;;;2.20;;
14778;SDS011;7481;53.750;10.570;2022-09-14T13:11:08;7.90;;;1.92;;
14778;SDS011;7481;53.750;10.570;2022-09-14T13:13:55;4.70;;;2.03;;
14778;SDS011;7481;53.750;10.570;2022-09-14T13:16:44;6.45;;;2.17;;
14778;SDS011;7481;53.750;10.570;2022-09-14T13:19:33;5.35;;;1.60;;
14778;SDS011;7481;53.750;10.570;2022-09-14T13:22:21;8.65;;;1.98;;
14778;SDS011;7481;53.750;10.570;2022-09-14T13:25:24;5.68;;;2.17;;
14778;SDS011;7481;53.750;10.570;2022-09-14T13:28:14;7.05;;;1.90;;
14778;SDS011;7481;53.750;10.570;2022-09-14T13:31:03;6.28;;;1.75;;
14778;SDS011;7481;53.750;10.570;2022-09-14T13:33:51;5.75;;;2.30;;
14778;SDS011;7481;53.750;10.570;2022-09-14T13:36:40;7.30;;;2.08;;
14778;SDS011;7481;53.750;10.570;2022-09-14T13:39:30;4.50;;;2.05;;
14778;SDS011;7481;53.750;10.570;2022-09-14T13:42:20;4.90;;;1.67;;
14778;SDS011;7481;53.750;10.570;2022-09-14T13:45:10;5.00;;;1.77;;
14778;SDS011;7481;53.750;10.570;2022-09-14T13:47:58;4.78;;;1.55;;
14778;SDS011;7481;53.750;10.570;2022-09-14T13:50:49;3.28;;;1.38;;
14778;SDS011;7481;53.750;10.570;2022-09-14T13:56:31;5.25;;;1.85;;
14778;SDS011;7481;53.750;10.570;2022-09-14T13:59:21;3.90;;;1.90;;
14778;SDS011;7481;53.750;10.570;2022-09-14T14:02:09;4.30;;;1.65;;
14778;SDS011;7481;53.750;10.570;2022-09-14T14:04:58;4.72;;;1.85;;
14778;SDS011;7481;53.750;10.570;2022-09-14T14:07:45;6.95;;;2.08;;
14778;SDS011;7481;53.750;10.570;2022-09-14T14:10:37;2.97;;;1.50;;
14778;SDS011;7481;53.750;10.570;2022-09-14T14:13:34;3.70;;;1.75;;
14778;SDS011;7481;53.750;10.570;2022-09-14T14:16:23;3.55;;;1.35;;
14778;SDS011;7481;53.750;10.570;2022-09-14T14:19:38;5.63;;;1.83;;
14778;SDS011;7481;53.750;10.570;2022-09-14T14:22:26;5.07;;;1.85;;
14778;SDS011;7481;53.750;10.570;2022-09-14T14:25:18;7.13;;;2.35;;
14778;SDS011;7481;53.750;10.570;2022-09-14T14:31:04;4.88;;;1.90;;
14778;SDS011;7481;53.750;10.570;2022-09-14T14:33:55;3.45;;;1.70;;
14778;SDS011;7481;53.750;10.570;2022-09-14T14:36:44;4.53;;;1.50;;
14778;SDS011;7481;53.750;10.570;2022-09-14T14:39:33;3.28;;;1.63;;
14778;SDS011;7481;53.750;10.570;2022-09-14T14:42:20;2.60;;;1.70;;
14778;SDS011;7481;53.750;10.570;2022-09-14T14:45:12;5.68;;;2.33;;
14778;SDS011;7481;53.750;10.570;2022-09-14T14:48:04;4.75;;;1.60;;
14778;SDS011;7481;53.750;10.570;2022-09-14T14:50:51;5.05;;;1.92;;
14778;SDS011;7481;53.750;10.570;2022-09-14T14:53:41;4.75;;;1.50;;
14778;SDS011;7481;53.750;10.570;2022-09-14T14:56:28;6.55;;;2.13;;
14778;SDS011;7481;53.750;10.570;2022-09-14T14:59:21;2.85;;;1.70;;
14778;SDS011;7481;53.750;10.570;2022-09-14T15:02:11;4.03;;;1.90;;
14778;SDS011;7481;53.750;10.570;2022-09-14T15:04:58;5.10;;;1.88;;
14778;SDS011;7481;53.750;10.570;2022-09-14T15:07:45;2.45;;;1.67;;
14778;SDS011;7481;53.750;10.570;2022-09-14T15:10:35;3.70;;;1.70;;
14778;SDS011;7481;53.750;10.570;2022-09-14T15:13:22;5.35;;;1.88;;
14778;SDS011;7481;53.750;10.570;2022-09-14T15:16:09;4.65;;;1.73;;
14778;SDS011;7481;53.750;10.570;2022-09-14T15:18:56;7.55;;;1.65;;
14778;SDS011;7481;53.750;10.570;2022-09-14T15:21:43;6.47;;;1.95;;
14778;SDS011;7481;53.750;10.570;2022-09-14T15:24:30;5.38;;;1.80;;
14778;SDS011;7481;53.750;10.570;2022-09-14T15:27:17;5.97;;;2.05;;
14778;SDS011;7481;53.750;10.570;2022-09-14T15:30:04;3.58;;;1.70;;
14778;SDS011;7481;53.750;10.570;2022-09-14T15:32:52;4.22;;;1.65;;
14778;SDS011;7481;53.750;10.570;2022-09-14T15:35:39;4.88;;;1.67;;
14778;SDS011;7481;53.750;10.570;2022-09-14T15:38:26;4.70;;;1.55;;
14778;SDS011;7481;53.750;10.570;2022-09-14T15:41:13;4.90;;;1.60;;
14778;SDS011;7481;53.750;10.570;2022-09-14T15:44:00;4.40;;;1.60;;
14778;SDS011;7481;53.750;10.570;2022-09-14T15:46:49;2.22;;;1.40;;
14778;SDS011;7481;53.750;10.570;2022-09-14T15:49:36;4.50;;;1.63;;
14778;SDS011;7481;53.750;10.570;2022-09-14T15:52:23;4.65;;;1.60;;
14778;SDS011;7481;53.750;10.570;2022-09-14T15:55:10;2.55;;;1.30;;
14778;SDS011;7481;53.750;10.570;2022-09-14T15:57:57;4.53;;;1.60;;
14778;SDS011;7481;53.750;10.570;2022-09-14T16:00:44;3.22;;;1.52;;
14778;SDS011;7481;53.750;10.570;2022-09-14T16:03:31;2.72;;;1.60;;
14778;SDS011;7481;53.750;10.570;2022-09-14T16:06:18;3.40;;;1.42;;
14778;SDS011;7481;53.750;10.570;2022-09-14T16:09:07;3.65;;;1.33;;
14778;SDS011;7481;53.750;10.570;2022-09-14T16:11:55;3.38;;;1.33;;
14778;SDS011;7481;53.750;10.570;2022-09-14T16:14:47;3.00;;;1.40;;
14778;SDS011;7481;53.750;10.570;2022-09-14T16:17:34;3.75;;;1.17;;
14778;SDS011;7481;53.750;10.570;2022-09-14T16:20:21;6.30;;;1.73;;
14778;SDS011;7481;53.750;10.570;2022-09-14T16:23:08;2.17;;;1.40;;
14778;SDS011;7481;53.750;10.570;2022-09-14T16:25:55;2.90;;;1.80;;
14778;SDS011;7481;53.750;10.570;2022-09-14T16:28:42;4.70;;;1.50;;
14778;SDS011;7481;53.750;10.570;2022-09-14T16:31:31;3.85;;;1.23;;
14778;SDS011;7481;53.750;10.570;2022-09-14T16:34:24;3.55;;;1.40;;
14778;SDS011;7481;53.750;10.570;2022-09-14T16:37:13;1.83;;;1.33;;
14778;SDS011;7481;53.750;10.570;2022-09-14T16:40:01;2.25;;;1.10;;
14778;SDS011;7481;53.750;10.570;2022-09-14T16:42:49;3.95;;;1.40;;
14778;SDS011;7481;53.750;10.570;2022-09-14T16:45:37;5.03;;;1.70;;
14778;SDS011;7481;53.750;10.570;2022-09-14T16:48:24;9.05;;;1.95;;
14778;SDS011;7481;53.750;10.570;2022-09-14T16:51:11;4.75;;;1.30;;
14778;SDS011;7481;53.750;10.570;2022-09-14T16:54:00;1.80;;;0.95;;
14778;SDS011;7481;53.750;10.570;2022-09-14T16:56:47;5.78;;;1.70;;
14778;SDS011;7481;53.750;10.570;2022-09-14T16:59:34;7.07;;;1.58;;
14778;SDS011;7481;53.750;10.570;2022-09-14T17:02:21;2.17;;;1.38;;
14778;SDS011;7481;53.750;10.570;2022-09-14T17:05:08;3.28;;;1.58;;
14778;SDS011;7481;53.750;10.570;2022-09-14T17:07:55;2.55;;;1.35;;
14778;SDS011;7481;53.750;10.570;2022-09-14T17:10:44;1.83;;;1.30;;
14778;SDS011;7481;53.750;10.570;2022-09-14T17:13:32;4.47;;;1.50;;
14778;SDS011;7481;53.750;10.570;2022-09-14T17:16:20;2.90;;;1.42;;
14778;SDS011;7481;53.750;10.570;2022-09-14T17:19:08;3.28;;;1.35;;
14778;SDS011;7481;53.750;10.570;2022-09-14T17:21:56;3.20;;;1.33;;
14778;SDS011;7481;53.750;10.570;2022-09-14T17:24:43;3.78;;;1.90;;
14778;SDS011;7481;53.750;10.570;2022-09-14T17:27:30;2.58;;;1.30;;
14778;SDS011;7481;53.750;10.570;2022-09-14T17:30:17;2.40;;;1.30;;
14778;SDS011;7481;53.750;10.570;2022-09-14T17:33:04;5.38;;;1.40;;
14778;SDS011;7481;53.750;10.570;2022-09-14T17:35:54;1.38;;;1.13;;
14778;SDS011;7481;53.750;10.570;2022-09-14T17:38:43;3.25;;;1.10;;
14778;SDS011;7481;53.750;10.570;2022-09-14T17:41:30;2.78;;;1.48;;
14778;SDS011;7481;53.750;10.570;2022-09-14T17:44:18;1.30;;;1.13;;
14778;SDS011;7481;53.750;10.570;2022-09-14T17:47:05;4.75;;;1.80;;
14778;SDS011;7481;53.750;10.570;2022-09-14T17:49:52;2.90;;;1.25;;
14778;SDS011;7481;53.750;10.570;2022-09-14T17:52:39;1.67;;;1.30;;
14778;SDS011;7481;53.750;10.570;2022-09-14T17:55:26;4.03;;;1.50;;
14778;SDS011;7481;53.750;10.570;2022-09-14T17:58:14;4.28;;;1.48;;
14778;SDS011;7481;53.750;10.570;2022-09-14T18:01:09;2.17;;;1.20;;
14778;SDS011;7481;53.750;10.570;2022-09-14T18:04:09;1.55;;;1.40;;
14778;SDS011;7481;53.750;10.570;2022-09-14T18:06:57;2.47;;;1.23;;
14778;SDS011;7481;53.750;10.570;2022-09-14T18:09:44;3.58;;;1.33;;
14778;SDS011;7481;53.750;10.570;2022-09-14T18:12:32;3.28;;;1.20;;
14778;SDS011;7481;53.750;10.570;2022-09-14T18:15:21;2.42;;;1.25;;
14778;SDS011;7481;53.750;10.570;2022-09-14T18:18:08;4.28;;;1.30;;
14778;SDS011;7481;53.750;10.570;2022-09-14T18:20:57;2.42;;;1.10;;
14778;SDS011;7481;53.750;10.570;2022-09-14T18:23:49;2.72;;;1.05;;
14778;SDS011;7481;53.750;10.570;2022-09-14T18:26:37;3.10;;;1.50;;
14778;SDS011;7481;53.750;10.570;2022-09-14T18:29:24;2.22;;;1.23;;
14778;SDS011;7481;53.750;10.570;2022-09-14T18:32:11;1.92;;;1.25;;
14778;SDS011;7481;53.750;10.570;2022-09-14T18:34:58;1.63;;;1.23;;
14778;SDS011;7481;53.750;10.570;2022-09-14T18:37:46;1.70;;;1.17;;
14778;SDS011;7481;53.750;10.570;2022-09-14T18:40:33;3.72;;;1.20;;
14778;SDS011;7481;53.750;10.570;2022-09-14T18:43:22;1.92;;;1.10;;
14778;SDS011;7481;53.750;10.570;2022-09-14T18:46:09;1.33;;;1.10;;
14778;SDS011;7481;53.750;10.570;2022-09-14T18:48:58;1.23;;;1.10;;